Time;durP1;ratioP1;P1;durP2;ratioP2;P2;SDS_P1;SDS_P2;PMS_P1;PMS_P2;Temp;Humidity;BMP_temperature;BMP_pressure;BME280_temperature;BME280_humidity;BME280_pressure;Samples;Min_cycle;Max_cycle;Signal;HPM_P1;HPM_P2
2023/02/13 00:01:17;;;;;;;29.00;26.60;;;;;;;;;;5106006;28;20458;-86
2023/02/13 00:03:45;;;;;;;28.43;26.27;;;;;;;;;;5106182;28;20455;-85
2023/02/13 00:06:12;;;;;;;29.53;27.13;;;;;;;;;;5105585;28;20453;-85
2023/02/13 00:08:39;;;;;;;27.97;25.77;;;;;;;;;;5106116;28;20423;-85
2023/02/13 00:11:06;;;;;;;28.23;25.77;;;;;;;;;;5105893;28;20435;-85
2023/02/13 00:13:34;;;;;;;28.67;26.40;;;;;;;;;;5104974;28;20453;-85
2023/02/13 00:16:02;;;;;;;27.53;25.27;;;;;;;;;;5104575;28;20461;-85
2023/02/13 00:18:30;;;;;;;27.77;25.47;;;;;;;;;;5104742;28;20996;-85
2023/02/13 00:20:59;;;;;;;27.07;24.83;;;;;;;;;;5105175;28;20443;-85
2023/02/13 00:23:26;;;;;;;26.30;24.20;;;;;;;;;;5104579;28;20469;-85
2023/02/13 00:25:53;;;;;;;28.13;25.57;;;;;;;;;;5105615;28;20518;-85
2023/02/13 00:28:20;;;;;;;26.63;24.53;;;;;;;;;;5105655;28;20451;-85
2023/02/13 00:30:47;;;;;;;27.03;25.03;;;;;;;;;;5106345;28;20784;-85
2023/02/13 00:33:14;;;;;;;27.53;25.37;;;;;;;;;;5103087;28;20859;-86
2023/02/13 00:35:41;;;;;;;28.33;25.93;;;;;;;;;;5104018;28;20468;-85
2023/02/13 00:38:09;;;;;;;27.10;25.00;;;;;;;;;;5104387;28;20437;-85
2023/02/13 00:40:36;;;;;;;26.93;24.80;;;;;;;;;;5103916;28;20489;-85
2023/02/13 00:43:03;;;;;;;27.23;25.00;;;;;;;;;;5103819;28;20452;-85
2023/02/13 00:45:30;;;;;;;27.10;24.90;;;;;;;;;;5104336;28;20886;-85
2023/02/13 00:47:57;;;;;;;27.20;24.80;;;;;;;;;;5103438;28;20521;-85
2023/02/13 00:50:24;;;;;;;26.50;24.40;;;;;;;;;;5104159;28;20470;-85
2023/02/13 00:52:51;;;;;;;26.20;24.10;;;;;;;;;;5103384;28;20415;-85
2023/02/13 00:55:19;;;;;;;28.40;26.10;;;;;;;;;;5104160;28;20460;-85
2023/02/13 00:57:46;;;;;;;27.67;25.60;;;;;;;;;;5103654;28;20432;-85
2023/02/13 01:00:14;;;;;;;27.60;25.37;;;;;;;;;;5103937;28;20984;-85
2023/02/13 01:02:41;;;;;;;26.80;24.77;;;;;;;;;;5103311;28;20476;-85
2023/02/13 01:05:08;;;;;;;27.67;25.67;;;;;;;;;;5103154;28;21082;-85
2023/02/13 01:07:35;;;;;;;28.23;25.83;;;;;;;;;;5104120;28;20429;-85
2023/02/13 01:10:02;;;;;;;27.03;25.03;;;;;;;;;;5103170;28;20445;-85
2023/02/13 01:12:31;;;;;;;27.70;25.60;;;;;;;;;;5103006;28;20449;-85
2023/02/13 01:14:59;;;;;;;26.60;24.40;;;;;;;;;;5104180;28;20536;-85
2023/02/13 01:17:26;;;;;;;27.97;25.67;;;;;;;;;;5103871;28;20423;-85
2023/02/13 01:19:53;;;;;;;27.40;24.90;;;;;;;;;;5102917;28;20427;-85
2023/02/13 01:22:20;;;;;;;27.00;24.80;;;;;;;;;;5102838;28;20486;-85
2023/02/13 01:24:47;;;;;;;26.23;24.10;;;;;;;;;;5102873;28;20463;-85
2023/02/13 01:27:14;;;;;;;26.10;23.97;;;;;;;;;;5103152;28;20449;-85
2023/02/13 01:29:43;;;;;;;26.87;24.77;;;;;;;;;;5103328;28;20446;-85
2023/02/13 01:32:10;;;;;;;26.33;24.30;;;;;;;;;;5102877;28;20419;-85
2023/02/13 01:34:36;;;;;;;25.20;23.20;;;;;;;;;;5103846;28;20416;-85
2023/02/13 01:37:03;;;;;;;26.70;24.50;;;;;;;;;;5103274;28;20452;-86
2023/02/13 01:39:31;;;;;;;26.93;24.90;;;;;;;;;;5103479;28;20974;-85
2023/02/13 01:41:58;;;;;;;27.00;24.80;;;;;;;;;;5102563;28;20407;-85
2023/02/13 01:44:43;;;;;;;26.23;24.13;;;;;;;;;;5102991;28;20569;-85
2023/02/13 01:47:13;;;;;;;28.47;26.27;;;;;;;;;;5102473;28;20426;-85
2023/02/13 01:49:41;;;;;;;26.67;24.60;;;;;;;;;;5103011;28;20472;-85
2023/02/13 01:52:08;;;;;;;26.07;24.20;;;;;;;;;;5102235;28;20526;-85
2023/02/13 01:54:35;;;;;;;26.43;24.30;;;;;;;;;;5102458;28;20829;-85
2023/02/13 01:57:04;;;;;;;26.83;24.73;;;;;;;;;;5102978;28;20407;-86
2023/02/13 01:59:35;;;;;;;27.13;24.93;;;;;;;;;;5102604;28;20415;-85
2023/02/13 02:02:03;;;;;;;27.20;25.07;;;;;;;;;;5102605;28;20426;-85
2023/02/13 02:04:33;;;;;;;27.90;25.60;;;;;;;;;;5102551;28;20459;-86
2023/02/13 02:07:03;;;;;;;28.03;25.73;;;;;;;;;;5102411;28;20417;-85
2023/02/13 02:09:33;;;;;;;27.13;24.90;;;;;;;;;;5102864;28;20439;-85
2023/02/13 02:12:03;;;;;;;26.13;24.13;;;;;;;;;;5102577;28;20820;-85
2023/02/13 02:14:31;;;;;;;27.77;25.67;;;;;;;;;;5102249;28;20410;-85
2023/02/13 02:16:58;;;;;;;26.10;24.10;;;;;;;;;;5102301;28;20433;-85
2023/02/13 02:19:30;;;;;;;26.63;24.53;;;;;;;;;;5102756;28;20980;-85
2023/02/13 02:22:15;;;;;;;25.67;23.57;;;;;;;;;;5101939;28;20429;-85
2023/02/13 02:24:55;;;;;;;26.40;24.30;;;;;;;;;;5102726;28;20480;-85
2023/02/13 02:27:32;;;;;;;26.60;24.50;;;;;;;;;;5102874;28;20429;-85
2023/02/13 02:30:23;;;;;;;26.87;24.53;;;;;;;;;;5102310;28;20802;-85
2023/02/13 02:32:57;;;;;;;26.43;24.37;;;;;;;;;;5101789;28;20437;-85
2023/02/13 02:35:29;;;;;;;26.13;24.03;;;;;;;;;;5101765;28;20435;-85
2023/02/13 02:38:07;;;;;;;26.43;24.33;;;;;;;;;;5102659;28;20433;-85
2023/02/13 02:40:37;;;;;;;26.47;24.40;;;;;;;;;;5103874;28;20878;-85
2023/02/13 02:43:14;;;;;;;27.50;25.40;;;;;;;;;;5105876;28;20471;-85
2023/02/13 02:45:45;;;;;;;26.70;24.40;;;;;;;;;;5105976;28;20534;-85
2023/02/13 02:51:04;;;;;;;26.57;24.40;;;;;;;;;;5106118;28;20402;-85
2023/02/13 02:53:33;;;;;;;27.83;25.67;;;;;;;;;;5105522;28;20503;-85
2023/02/13 02:56:03;;;;;;;27.93;25.70;;;;;;;;;;5106299;28;20460;-85
2023/02/13 03:06:53;;;;;;;28.33;25.67;;;;;;;;;;5105799;28;20462;-85
2023/02/13 03:15:05;;;;;;;29.03;26.40;;;;;;;;;;5043928;28;20447;-85
2023/02/13 03:23:14;;;;;;;28.83;26.43;;;;;;;;;;5105207;28;20922;-85
2023/02/13 03:25:48;;;;;;;29.53;27.10;;;;;;;;;;5106032;28;20821;-85
2023/02/13 03:31:07;;;;;;;28.00;25.70;;;;;;;;;;5106101;28;20450;-85
2023/02/13 03:33:40;;;;;;;29.47;26.77;;;;;;;;;;5105515;28;20406;-85
2023/02/13 03:39:01;;;;;;;30.50;28.00;;;;;;;;;;5105525;28;20446;-85
2023/02/13 03:41:29;;;;;;;29.80;27.13;;;;;;;;;;5104898;28;20414;-85
2023/02/13 03:44:01;;;;;;;31.13;28.33;;;;;;;;;;5105783;28;20942;-85
2023/02/13 03:46:31;;;;;;;31.60;28.47;;;;;;;;;;5105775;28;20490;-85
2023/02/13 03:51:49;;;;;;;31.77;28.80;;;;;;;;;;5105061;28;20431;-85
2023/02/13 03:54:18;;;;;;;28.57;25.93;;;;;;;;;;5105661;28;20444;-85
2023/02/13 03:59:37;;;;;;;28.67;26.27;;;;;;;;;;5106186;28;20964;-85
2023/02/13 04:02:07;;;;;;;29.93;27.43;;;;;;;;;;5104205;28;20445;-85
2023/02/13 04:04:40;;;;;;;30.40;27.60;;;;;;;;;;5104948;28;20469;-85
2023/02/13 04:07:11;;;;;;;28.57;25.97;;;;;;;;;;5104761;28;20461;-85
2023/02/13 04:09:39;;;;;;;26.30;24.20;;;;;;;;;;5104916;28;20449;-85
2023/02/13 04:12:09;;;;;;;29.03;26.33;;;;;;;;;;5104518;28;20444;-85
2023/02/13 04:14:39;;;;;;;28.87;26.37;;;;;;;;;;5105003;28;20408;-85
2023/02/13 04:17:07;;;;;;;29.80;27.43;;;;;;;;;;5104864;28;20446;-85
2023/02/13 04:19:34;;;;;;;28.30;25.90;;;;;;;;;;5104734;28;20778;-85
2023/02/13 04:22:02;;;;;;;28.70;26.30;;;;;;;;;;5103952;28;20478;-85
2023/02/13 04:24:30;;;;;;;27.93;25.53;;;;;;;;;;5104101;28;20442;-85
2023/02/13 04:26:57;;;;;;;27.67;25.37;;;;;;;;;;5103846;28;20434;-85
2023/02/13 04:29:25;;;;;;;26.67;24.40;;;;;;;;;;5104781;28;20502;-85
2023/02/13 04:31:52;;;;;;;27.47;25.07;;;;;;;;;;5104240;28;20455;-85
2023/02/13 04:34:19;;;;;;;29.70;27.03;;;;;;;;;;5104671;28;20441;-85
2023/02/13 04:36:46;;;;;;;27.07;24.87;;;;;;;;;;5104148;28;20463;-85
2023/02/13 04:39:13;;;;;;;28.40;26.00;;;;;;;;;;5104495;28;20445;-85
2023/02/13 04:41:41;;;;;;;28.57;26.27;;;;;;;;;;5104297;28;20453;-86
2023/02/13 04:44:08;;;;;;;28.43;26.07;;;;;;;;;;5104354;28;20452;-85
2023/02/13 04:46:35;;;;;;;27.47;25.23;;;;;;;;;;5103691;28;20484;-85
2023/02/13 04:49:02;;;;;;;28.70;26.40;;;;;;;;;;5104772;28;20419;-85
2023/02/13 04:51:29;;;;;;;26.77;24.67;;;;;;;;;;5103735;28;20456;-85
2023/02/13 04:53:56;;;;;;;27.13;24.67;;;;;;;;;;5104428;28;20453;-85
2023/02/13 04:56:23;;;;;;;27.33;25.13;;;;;;;;;;5103750;28;20878;-85
2023/02/13 04:58:52;;;;;;;27.00;24.70;;;;;;;;;;5104298;28;20448;-85
2023/02/13 05:01:19;;;;;;;28.73;26.27;;;;;;;;;;5103898;28;20457;-84
2023/02/13 05:03:46;;;;;;;27.77;25.47;;;;;;;;;;5103404;28;20512;-85
2023/02/13 05:06:13;;;;;;;27.40;25.20;;;;;;;;;;5103538;28;20484;-85
2023/02/13 05:08:40;;;;;;;29.13;26.73;;;;;;;;;;5104494;28;20449;-85
2023/02/13 05:11:07;;;;;;;25.93;23.93;;;;;;;;;;5104863;28;20860;-85
2023/02/13 05:13:34;;;;;;;26.67;24.37;;;;;;;;;;5102831;28;20521;-86
2023/02/13 05:16:02;;;;;;;29.27;26.97;;;;;;;;;;5104290;28;20472;-85
2023/02/13 05:18:29;;;;;;;29.03;26.50;;;;;;;;;;5104434;28;20441;-85
2023/02/13 05:23:41;;;;;;;29.63;26.97;;;;;;;;;;5103107;28;20403;-85
2023/02/13 05:26:08;;;;;;;28.60;26.10;;;;;;;;;;5103618;28;20485;-85
2023/02/13 05:31:21;;;;;;;32.07;29.17;;;;;;;;;;5103261;28;20462;-86
2023/02/13 05:33:48;;;;;;;30.53;27.83;;;;;;;;;;5103688;28;20429;-85
2023/02/13 05:36:15;;;;;;;30.13;27.60;;;;;;;;;;5103679;28;20514;-85
2023/02/13 05:38:42;;;;;;;31.67;28.90;;;;;;;;;;5102788;28;20441;-85
2023/02/13 05:41:12;;;;;;;34.00;30.70;;;;;;;;;;5102534;28;20460;-85
2023/02/13 05:43:39;;;;;;;31.90;29.08;;;;;;;;;;5102590;28;20415;-85
2023/02/13 05:46:12;;;;;;;30.15;27.60;;;;;;;;;;5103058;28;20282;-85
2023/02/13 05:48:41;;;;;;;29.97;27.17;;;;;;;;;;5103447;28;20203;-85
2023/02/13 05:51:08;;;;;;;33.50;30.20;;;;;;;;;;5103211;28;20958;-85
2023/02/13 05:53:35;;;;;;;32.50;29.63;;;;;;;;;;5102895;28;20449;-85
2023/02/13 05:56:02;;;;;;;43.23;38.70;;;;;;;;;;5103099;28;20550;-85
2023/02/13 05:58:29;;;;;;;37.70;34.10;;;;;;;;;;5103114;28;20441;-85
2023/02/13 06:00:56;;;;;;;33.80;30.57;;;;;;;;;;5103338;28;20419;-85
2023/02/13 06:03:23;;;;;;;33.87;30.63;;;;;;;;;;5101777;28;21033;-85
2023/02/13 06:05:52;;;;;;;29.47;27.00;;;;;;;;;;5102600;28;20538;-85
2023/02/13 06:08:19;;;;;;;27.90;25.70;;;;;;;;;;5102862;28;20429;-85
2023/02/13 06:10:46;;;;;;;31.60;28.80;;;;;;;;;;5102599;28;20440;-86
2023/02/13 06:13:13;;;;;;;31.13;28.40;;;;;;;;;;5102903;28;20498;-85
2023/02/13 06:15:40;;;;;;;31.63;28.90;;;;;;;;;;5101953;28;20457;-85
2023/02/13 06:18:07;;;;;;;28.97;26.57;;;;;;;;;;5102578;28;20440;-85
2023/02/13 06:20:35;;;;;;;27.67;25.50;;;;;;;;;;5103139;28;20453;-85
2023/02/13 06:23:03;;;;;;;28.43;25.70;;;;;;;;;;5101315;28;20452;-85
2023/02/13 06:25:30;;;;;;;28.17;25.83;;;;;;;;;;5103003;28;20488;-85
2023/02/13 06:27:57;;;;;;;27.03;24.73;;;;;;;;;;5101427;28;20203;-85
2023/02/13 06:30:24;;;;;;;26.90;24.70;;;;;;;;;;5101812;28;20472;-85
2023/02/13 06:32:51;;;;;;;27.67;25.17;;;;;;;;;;5102232;28;20452;-85
2023/02/13 06:35:18;;;;;;;28.90;26.50;;;;;;;;;;5102579;28;20456;-85
2023/02/13 06:37:46;;;;;;;29.10;26.67;;;;;;;;;;5102352;28;20448;-85
2023/02/13 06:40:15;;;;;;;27.90;25.50;;;;;;;;;;5102461;28;20494;-85
2023/02/13 06:42:42;;;;;;;28.03;25.63;;;;;;;;;;5097796;28;20450;-85
2023/02/13 06:45:10;;;;;;;26.47;24.30;;;;;;;;;;5097300;28;20498;-85
2023/02/13 06:47:40;;;;;;;26.80;24.43;;;;;;;;;;5101940;28;20441;-85
2023/02/13 06:50:08;;;;;;;27.23;24.93;;;;;;;;;;5102380;28;20425;-85
2023/02/13 06:52:35;;;;;;;27.00;24.80;;;;;;;;;;5102277;28;20510;-85
2023/02/13 06:55:02;;;;;;;27.17;24.73;;;;;;;;;;5101316;28;20455;-85
2023/02/13 06:57:32;;;;;;;27.90;25.30;;;;;;;;;;5101832;28;20457;-85
2023/02/13 06:59:59;;;;;;;28.43;25.90;;;;;;;;;;5101855;28;20522;-86
2023/02/13 07:02:26;;;;;;;27.60;25.17;;;;;;;;;;5101993;28;20878;-85
2023/02/13 07:04:53;;;;;;;25.87;23.87;;;;;;;;;;5101512;28;20514;-85
2023/02/13 07:07:20;;;;;;;25.17;23.10;;;;;;;;;;5102674;28;20485;-85
2023/02/13 07:09:47;;;;;;;26.63;24.63;;;;;;;;;;5101857;28;20972;-85
2023/02/13 07:12:14;;;;;;;27.53;25.30;;;;;;;;;;5101320;28;20834;-84
2023/02/13 07:14:42;;;;;;;27.53;25.33;;;;;;;;;;5100648;28;20468;-85
2023/02/13 07:17:10;;;;;;;25.97;23.93;;;;;;;;;;5102042;28;20833;-85
2023/02/13 07:19:37;;;;;;;27.13;24.83;;;;;;;;;;5101255;28;20483;-85
2023/02/13 07:22:04;;;;;;;25.03;23.13;;;;;;;;;;5100505;28;20921;-85
2023/02/13 07:24:32;;;;;;;25.50;23.50;;;;;;;;;;5097628;28;20448;-86
2023/02/13 07:26:59;;;;;;;26.50;24.50;;;;;;;;;;5100975;28;20512;-85
2023/02/13 07:29:26;;;;;;;27.37;25.27;;;;;;;;;;5081804;28;20506;-82
2023/02/13 07:31:54;;;;;;;27.57;25.37;;;;;;;;;;5080530;28;20516;-83
2023/02/13 07:34:21;;;;;;;26.13;23.93;;;;;;;;;;5081431;28;20453;-82
2023/02/13 07:36:48;;;;;;;26.40;24.33;;;;;;;;;;5080908;28;20868;-82
2023/02/13 07:39:16;;;;;;;27.43;25.23;;;;;;;;;;5080883;28;20441;-82
2023/02/13 07:41:43;;;;;;;26.17;24.13;;;;;;;;;;5079573;28;20469;-83
2023/02/13 07:44:10;;;;;;;25.50;23.50;;;;;;;;;;5080412;28;20480;-83
2023/02/13 07:46:37;;;;;;;26.50;24.50;;;;;;;;;;5080607;28;20485;-82
2023/02/13 07:49:05;;;;;;;25.93;23.83;;;;;;;;;;5078973;28;20928;-87
2023/02/13 07:51:32;;;;;;;25.33;23.47;;;;;;;;;;5077978;28;20470;-87
2023/02/13 07:53:59;;;;;;;24.47;22.77;;;;;;;;;;5080017;28;20439;-86
2023/02/13 07:56:26;;;;;;;24.90;23.00;;;;;;;;;;5080790;28;20453;-86
2023/02/13 07:58:53;;;;;;;24.77;23.03;;;;;;;;;;5080533;28;20442;-86
2023/02/13 08:01:20;;;;;;;25.50;23.80;;;;;;;;;;5079896;28;20434;-84
2023/02/13 08:03:50;;;;;;;24.77;23.07;;;;;;;;;;5080322;28;20503;-86
2023/02/13 08:06:19;;;;;;;25.13;23.43;;;;;;;;;;5081275;28;20549;-85
2023/02/13 08:08:46;;;;;;;24.50;22.70;;;;;;;;;;5081315;28;20450;-86
2023/02/13 08:14:09;;;;;;;25.00;23.10;;;;;;;;;;5081388;28;20402;-85
2023/02/13 08:16:36;;;;;;;24.20;22.50;;;;;;;;;;5080067;28;21027;-86
2023/02/13 08:19:03;;;;;;;25.43;23.63;;;;;;;;;;5081133;28;20906;-85
2023/02/13 08:21:31;;;;;;;24.93;23.17;;;;;;;;;;5077375;28;20434;-87
2023/02/13 08:23:59;;;;;;;24.23;22.63;;;;;;;;;;5079736;28;20484;-86
2023/02/13 08:26:26;;;;;;;25.17;23.20;;;;;;;;;;5080199;28;20463;-84
2023/02/13 08:28:53;;;;;;;23.47;21.97;;;;;;;;;;5079464;28;20412;-86
2023/02/13 08:31:20;;;;;;;25.60;23.80;;;;;;;;;;5081131;28;20438;-85
2023/02/13 08:33:47;;;;;;;24.40;22.80;;;;;;;;;;5081093;28;20478;-85
2023/02/13 08:36:14;;;;;;;24.07;22.40;;;;;;;;;;5081129;28;20487;-85
2023/02/13 08:38:42;;;;;;;23.90;22.10;;;;;;;;;;5079212;28;20429;-87
2023/02/13 08:41:09;;;;;;;25.50;23.70;;;;;;;;;;5078831;28;20436;-86
2023/02/13 08:43:36;;;;;;;25.40;23.60;;;;;;;;;;5079096;28;20837;-86
2023/02/13 08:46:03;;;;;;;25.20;23.30;;;;;;;;;;5079771;28;20476;-82
2023/02/13 08:48:30;;;;;;;25.40;23.60;;;;;;;;;;5080363;28;20484;-81
2023/02/13 08:50:57;;;;;;;24.17;22.57;;;;;;;;;;5078764;28;20466;-80
2023/02/13 08:53:24;;;;;;;24.53;22.83;;;;;;;;;;5077172;28;20420;-80
2023/02/13 08:55:53;;;;;;;25.63;23.93;;;;;;;;;;5086936;28;20444;-81
2023/02/13 08:58:20;;;;;;;24.03;22.30;;;;;;;;;;5099381;28;20455;-81
2023/02/13 09:00:47;;;;;;;24.90;23.20;;;;;;;;;;5098059;28;20448;-80
2023/02/13 09:03:14;;;;;;;23.70;22.10;;;;;;;;;;5098255;28;20909;-81
2023/02/13 09:05:42;;;;;;;24.90;22.93;;;;;;;;;;5098169;28;20443;-81
2023/02/13 09:08:10;;;;;;;24.97;23.27;;;;;;;;;;5098827;28;20495;-81
2023/02/13 09:10:38;;;;;;;23.67;22.03;;;;;;;;;;5098710;28;20460;-81
2023/02/13 09:13:06;;;;;;;24.80;23.10;;;;;;;;;;5097939;28;20464;-81
2023/02/13 09:15:34;;;;;;;24.80;23.10;;;;;;;;;;5098723;28;20473;-81
2023/02/13 09:18:01;;;;;;;25.37;23.77;;;;;;;;;;5098704;28;20441;-81
2023/02/13 09:20:28;;;;;;;25.90;24.10;;;;;;;;;;5098490;28;20456;-80
2023/02/13 09:22:56;;;;;;;24.50;22.90;;;;;;;;;;5097755;28;20868;-81
2023/02/13 09:25:23;;;;;;;25.37;23.60;;;;;;;;;;5098698;28;20476;-80
2023/02/13 09:27:50;;;;;;;24.40;22.80;;;;;;;;;;5098602;28;20451;-85
2023/02/13 09:30:22;;;;;;;25.13;23.30;;;;;;;;;;5098618;28;20408;-80
2023/02/13 09:32:49;;;;;;;24.90;23.20;;;;;;;;;;5098164;28;20502;-84
2023/02/13 09:35:16;;;;;;;24.00;22.37;;;;;;;;;;5098311;28;20512;-80
2023/02/13 09:37:44;;;;;;;23.27;21.70;;;;;;;;;;5098767;28;20452;-79
2023/02/13 09:40:16;;;;;;;25.30;23.60;;;;;;;;;;5099140;28;20483;-81
2023/02/13 09:42:44;;;;;;;24.83;23.17;;;;;;;;;;5097221;28;20836;-80
2023/02/13 09:45:13;;;;;;;26.43;24.63;;;;;;;;;;5097951;28;20537;-82
2023/02/13 09:47:42;;;;;;;23.63;22.03;;;;;;;;;;5098142;28;20480;-80
2023/02/13 09:50:12;;;;;;;23.40;21.90;;;;;;;;;;5098534;28;20445;-84
2023/02/13 09:52:40;;;;;;;24.47;22.87;;;;;;;;;;5098800;28;20782;-84
2023/02/13 09:55:15;;;;;;;23.90;22.40;;;;;;;;;;5098518;28;20488;-83
2023/02/13 09:57:45;;;;;;;24.17;22.47;;;;;;;;;;5099539;28;20456;-86
2023/02/13 10:00:14;;;;;;;23.87;22.37;;;;;;;;;;5099172;28;20441;-82
2023/02/13 10:02:50;;;;;;;23.57;22.07;;;;;;;;;;5098580;28;20464;-83
2023/02/13 10:05:24;;;;;;;25.30;23.50;;;;;;;;;;5095851;28;21001;-78
2023/02/13 10:07:56;;;;;;;26.23;24.30;;;;;;;;;;5095983;28;20449;-78
2023/02/13 10:10:28;;;;;;;24.90;23.10;;;;;;;;;;5096632;28;20463;-79
2023/02/13 10:12:58;;;;;;;27.50;25.40;;;;;;;;;;5095258;28;20411;-78
2023/02/13 10:15:29;;;;;;;24.83;23.13;;;;;;;;;;5095901;28;20497;-79
2023/02/13 10:18:04;;;;;;;23.50;22.00;;;;;;;;;;5095974;28;20487;-79
2023/02/13 10:20:32;;;;;;;26.00;24.30;;;;;;;;;;5097756;28;20428;-79
2023/02/13 10:23:01;;;;;;;24.83;23.10;;;;;;;;;;5096392;28;20846;-79
2023/02/13 10:25:30;;;;;;;24.30;22.50;;;;;;;;;;5097706;28;20432;-79
2023/02/13 10:28:01;;;;;;;25.50;23.90;;;;;;;;;;5096580;28;20507;-79
2023/02/13 10:30:31;;;;;;;25.90;24.10;;;;;;;;;;5097525;28;20416;-78
2023/02/13 10:33:18;;;;;;;25.57;23.83;;;;;;;;;;5097456;28;20512;-81
2023/02/13 10:35:48;;;;;;;25.97;24.23;;;;;;;;;;5098613;28;20462;-86
2023/02/13 10:38:16;;;;;;;25.07;23.47;;;;;;;;;;5098384;28;20441;-83
2023/02/13 10:40:48;;;;;;;25.50;23.80;;;;;;;;;;5099887;28;20448;-82
2023/02/13 10:43:19;;;;;;;26.93;25.10;;;;;;;;;;5099779;28;20490;-85
2023/02/13 10:45:51;;;;;;;25.80;24.00;;;;;;;;;;5098465;28;20786;-83
2023/02/13 10:48:28;;;;;;;25.23;23.63;;;;;;;;;;5099155;28;20448;-83
2023/02/13 10:50:58;;;;;;;26.17;24.27;;;;;;;;;;5080521;28;20457;-87
2023/02/13 10:53:29;;;;;;;23.60;22.10;;;;;;;;;;5077126;28;20418;-87
2023/02/13 10:56:21;;;;;;;24.77;23.07;;;;;;;;;;5078332;28;20448;-84
2023/02/13 10:58:55;;;;;;;24.13;22.53;;;;;;;;;;5076475;28;20465;-86
2023/02/13 11:01:29;;;;;;;24.90;23.20;;;;;;;;;;5078978;28;20885;-85
2023/02/13 11:04:05;;;;;;;24.90;23.30;;;;;;;;;;5081948;28;20799;-85
2023/02/13 11:06:34;;;;;;;25.43;23.73;;;;;;;;;;5081865;28;20461;-85
2023/02/13 11:09:01;;;;;;;24.60;23.00;;;;;;;;;;5083397;28;20424;-82
2023/02/13 11:11:29;;;;;;;24.77;23.17;;;;;;;;;;5082267;28;20473;-83
2023/02/13 11:14:08;;;;;;;25.13;23.53;;;;;;;;;;5082034;28;20495;-84
2023/02/13 11:16:39;;;;;;;24.87;23.27;;;;;;;;;;5082133;28;20469;-82
2023/02/13 11:19:16;;;;;;;24.80;23.20;;;;;;;;;;5082193;28;20444;-83
2023/02/13 11:21:43;;;;;;;24.50;22.90;;;;;;;;;;5082219;28;20968;-83
2023/02/13 11:24:17;;;;;;;25.00;23.30;;;;;;;;;;5082360;28;20437;-82
2023/02/13 11:26:44;;;;;;;23.93;22.37;;;;;;;;;;5082331;28;20484;-86
2023/02/13 11:29:17;;;;;;;24.30;22.70;;;;;;;;;;5083861;28;20804;-83
2023/02/13 11:31:44;;;;;;;24.83;23.20;;;;;;;;;;5079785;28;20956;-84
2023/02/13 11:34:26;;;;;;;24.60;22.90;;;;;;;;;;5080749;28;20497;-82
2023/02/13 11:36:54;;;;;;;25.87;24.17;;;;;;;;;;5079068;28;20408;-79
2023/02/13 11:39:21;;;;;;;25.07;23.47;;;;;;;;;;5077685;28;20425;-78
2023/02/13 11:41:50;;;;;;;26.23;24.43;;;;;;;;;;5076458;28;20935;-78
2023/02/13 11:44:23;;;;;;;25.73;24.03;;;;;;;;;;5077735;28;20451;-78
2023/02/13 11:46:51;;;;;;;24.10;22.50;;;;;;;;;;5076910;28;20460;-79
2023/02/13 11:49:21;;;;;;;26.07;24.27;;;;;;;;;;5088085;28;20464;-78
2023/02/13 11:51:50;;;;;;;24.80;23.10;;;;;;;;;;5097368;28;20445;-79
2023/02/13 11:54:22;;;;;;;25.20;23.50;;;;;;;;;;5096855;28;20890;-78
2023/02/13 11:56:50;;;;;;;24.20;22.67;;;;;;;;;;5097263;28;20440;-78
2023/02/13 11:59:17;;;;;;;24.87;23.17;;;;;;;;;;5097749;28;20455;-78
2023/02/13 12:01:48;;;;;;;25.30;23.60;;;;;;;;;;5097165;28;20449;-78
2023/02/13 12:04:16;;;;;;;26.57;24.77;;;;;;;;;;5098027;28;20464;-78
2023/02/13 12:06:57;;;;;;;25.77;24.17;;;;;;;;;;5100044;28;20444;-79
2023/02/13 12:09:26;;;;;;;26.63;24.93;;;;;;;;;;5099710;28;20404;-79
2023/02/13 12:11:54;;;;;;;26.90;25.00;;;;;;;;;;5099462;28;20441;-79
2023/02/13 12:14:22;;;;;;;25.63;23.93;;;;;;;;;;5100559;28;20449;-78
2023/02/13 12:16:50;;;;;;;25.40;23.63;;;;;;;;;;5100486;28;20527;-79
2023/02/13 12:19:20;;;;;;;25.83;24.13;;;;;;;;;;5101197;28;20460;-79
2023/02/13 12:21:52;;;;;;;26.60;24.97;;;;;;;;;;5101196;28;20923;-79
2023/02/13 12:24:30;;;;;;;26.33;24.63;;;;;;;;;;5102173;28;20436;-79
2023/02/13 12:27:03;;;;;;;26.57;24.60;;;;;;;;;;5101413;28;20416;-79
2023/02/13 12:29:46;;;;;;;26.37;24.57;;;;;;;;;;5101770;28;20429;-79
2023/02/13 12:32:18;;;;;;;26.07;24.37;;;;;;;;;;5101565;28;20440;-79
2023/02/13 12:35:11;;;;;;;25.30;23.60;;;;;;;;;;5101711;28;20411;-79
2023/02/13 12:37:47;;;;;;;26.03;24.43;;;;;;;;;;5102090;28;20482;-79
2023/02/13 12:40:32;;;;;;;25.30;23.70;;;;;;;;;;5101420;28;20863;-79
2023/02/13 12:43:08;;;;;;;25.00;23.50;;;;;;;;;;5090297;28;20447;-79
2023/02/13 12:45:39;;;;;;;24.23;22.63;;;;;;;;;;5101269;28;20815;-79
2023/02/13 12:48:17;;;;;;;25.90;24.13;;;;;;;;;;5101793;28;20585;-79
2023/02/13 12:50:53;;;;;;;24.80;23.20;;;;;;;;;;5100710;28;20440;-79
2023/02/13 12:53:25;;;;;;;25.77;23.97;;;;;;;;;;5099361;28;20547;-79
2023/02/13 12:56:00;;;;;;;24.97;23.37;;;;;;;;;;5100708;28;20468;-79
2023/02/13 12:58:39;;;;;;;25.73;24.03;;;;;;;;;;5100279;28;20459;-79
2023/02/13 13:01:13;;;;;;;25.77;24.17;;;;;;;;;;5099846;28;20503;-79
2023/02/13 13:03:45;;;;;;;25.73;24.03;;;;;;;;;;5099496;28;20437;-79
2023/02/13 13:06:22;;;;;;;25.40;23.80;;;;;;;;;;5098949;28;20516;-79
2023/02/13 13:08:57;;;;;;;25.97;24.27;;;;;;;;;;5099593;28;20443;-79
2023/02/13 13:11:32;;;;;;;25.50;23.80;;;;;;;;;;5099735;28;20415;-79
2023/02/13 13:14:06;;;;;;;24.93;23.27;;;;;;;;;;5097897;28;20439;-79
2023/02/13 13:16:41;;;;;;;25.73;24.23;;;;;;;;;;5098155;28;20461;-78
2023/02/13 13:19:11;;;;;;;25.80;24.20;;;;;;;;;;5098302;28;20413;-79
2023/02/13 13:21:42;;;;;;;24.73;23.13;;;;;;;;;;5097945;28;20453;-79
2023/02/13 13:24:14;;;;;;;25.10;23.20;;;;;;;;;;5098918;28;20412;-79
2023/02/13 13:26:42;;;;;;;24.57;22.97;;;;;;;;;;5099222;28;20435;-79
2023/02/13 13:29:13;;;;;;;25.10;23.50;;;;;;;;;;5099269;28;20499;-79
2023/02/13 13:31:40;;;;;;;25.07;23.37;;;;;;;;;;5097863;28;20803;-79
2023/02/13 13:34:13;;;;;;;25.40;23.70;;;;;;;;;;5099750;28;20480;-79
2023/02/13 13:36:45;;;;;;;25.00;23.40;;;;;;;;;;5097997;28;20978;-80
2023/02/13 13:39:19;;;;;;;25.97;24.37;;;;;;;;;;5099097;28;20422;-79
2023/02/13 13:41:53;;;;;;;25.53;24.00;;;;;;;;;;5098669;28;20471;-79
2023/02/13 13:44:28;;;;;;;26.57;24.87;;;;;;;;;;5099275;28;20419;-79
2023/02/13 13:46:58;;;;;;;25.80;24.20;;;;;;;;;;5099140;28;20399;-79
2023/02/13 13:49:36;;;;;;;26.50;24.90;;;;;;;;;;5098654;28;21029;-79
2023/02/13 13:52:20;;;;;;;25.30;23.80;;;;;;;;;;5099064;28;20400;-79
2023/02/13 13:54:50;;;;;;;26.53;24.87;;;;;;;;;;5099599;28;20446;-79
2023/02/13 13:57:17;;;;;;;26.07;24.60;;;;;;;;;;5099662;28;20473;-79
2023/02/13 14:00:15;;;;;;;24.93;23.37;;;;;;;;;;5100284;28;20471;-79
2023/02/13 14:02:45;;;;;;;24.63;23.13;;;;;;;;;;5099427;28;20483;-81
2023/02/13 14:05:26;;;;;;;24.13;22.73;;;;;;;;;;5099565;28;21029;-80
2023/02/13 14:07:54;;;;;;;25.93;24.30;;;;;;;;;;5098983;28;20525;-79
2023/02/13 14:10:39;;;;;;;25.17;23.53;;;;;;;;;;5100074;28;20420;-79
2023/02/13 14:13:07;;;;;;;23.50;22.10;;;;;;;;;;5099204;28;20423;-79
2023/02/13 14:15:50;;;;;;;24.83;23.23;;;;;;;;;;5099547;28;20475;-86
2023/02/13 14:18:22;;;;;;;23.77;22.33;;;;;;;;;;5099411;28;20500;-82
2023/02/13 14:20:53;;;;;;;23.93;22.43;;;;;;;;;;5099371;28;20767;-79
2023/02/13 14:23:27;;;;;;;23.53;22.03;;;;;;;;;;5094501;28;20452;-78
2023/02/13 14:26:09;;;;;;;25.47;23.77;;;;;;;;;;5098665;28;20469;-81
2023/02/13 14:28:36;;;;;;;24.23;22.63;;;;;;;;;;5095151;28;20483;-77
2023/02/13 14:31:07;;;;;;;24.40;22.80;;;;;;;;;;5093460;28;20513;-78
2023/02/13 14:33:36;;;;;;;25.00;23.30;;;;;;;;;;5093913;28;20451;-77
2023/02/13 14:36:05;;;;;;;25.90;24.30;;;;;;;;;;5092801;28;20439;-77
2023/02/13 14:38:32;;;;;;;25.67;24.07;;;;;;;;;;5093947;28;20411;-77
2023/02/13 14:40:59;;;;;;;24.30;22.53;;;;;;;;;;5094066;28;20440;-77
2023/02/13 14:43:32;;;;;;;24.23;22.73;;;;;;;;;;5092540;28;20451;-78
2023/02/13 14:46:02;;;;;;;24.80;23.30;;;;;;;;;;5093502;28;20443;-78
2023/02/13 14:48:35;;;;;;;24.57;23.07;;;;;;;;;;5093697;28;20960;-77
2023/02/13 14:51:04;;;;;;;23.70;22.20;;;;;;;;;;5095524;28;20427;-80
2023/02/13 14:53:32;;;;;;;24.10;22.60;;;;;;;;;;5094646;28;20424;-78
2023/02/13 14:56:01;;;;;;;24.30;22.77;;;;;;;;;;5088170;28;20469;-78
2023/02/13 14:58:31;;;;;;;25.10;23.50;;;;;;;;;;5094140;28;20479;-78
2023/02/13 15:01:00;;;;;;;24.33;22.83;;;;;;;;;;5082449;28;20495;-87
2023/02/13 15:03:29;;;;;;;23.67;22.23;;;;;;;;;;5084760;28;20420;-79
2023/02/13 15:05:58;;;;;;;23.93;22.33;;;;;;;;;;5082302;28;20428;-84
2023/02/13 15:08:28;;;;;;;23.70;22.20;;;;;;;;;;5075356;28;20452;-87
2023/02/13 15:10:55;;;;;;;23.70;22.30;;;;;;;;;;5075164;28;20432;-87
2023/02/13 15:13:24;;;;;;;23.70;22.30;;;;;;;;;;5074019;28;20457;-87